createdAt,value
2022-09-04T00:01:01.193Z,50.24
2022-09-04T00:03:35.437Z,50.14
2022-09-04T00:06:06.539Z,50.17
2022-09-04T00:08:53.939Z,50.26
2022-09-04T00:11:31.087Z,50.11
2022-09-04T00:14:01.089Z,50.17
2022-09-04T00:16:30.078Z,50.02
2022-09-04T00:19:02.680Z,50.12
2022-09-04T00:21:33.343Z,50.14
2022-09-04T00:24:04.213Z,50.20
2022-09-04T00:26:43.810Z,50.04
2022-09-04T00:29:16.022Z,50.29
2022-09-04T00:31:48.363Z,50.11
2022-09-04T00:34:21.296Z,50.20
2022-09-04T00:36:52.615Z,49.99
2022-09-04T00:39:24.231Z,50.10
2022-09-04T00:42:02.033Z,50.08
2022-09-04T00:44:40.273Z,50.09
2022-09-04T00:47:20.562Z,50.04
2022-09-04T00:49:57.963Z,50.17
2022-09-04T00:52:42.901Z,50.07
2022-09-04T00:55:23.055Z,50.10
2022-09-04T00:58:05.763Z,50.22
2022-09-04T01:00:33.732Z,50.11
2022-09-04T01:03:30.865Z,50.11
2022-09-04T01:06:19.149Z,50.13
2022-09-04T01:09:03.335Z,50.38
2022-09-04T01:11:37.480Z,50.16
2022-09-04T01:14:13.923Z,50.22
2022-09-04T01:16:45.449Z,50.32
2022-09-04T01:19:21.113Z,50.32
2022-09-04T01:21:58.043Z,50.32
2022-09-04T01:24:47.589Z,50.17
2022-09-04T01:27:20.286Z,50.25
2022-09-04T01:29:53.382Z,50.19
2022-09-04T01:32:27.453Z,50.45
2022-09-04T01:35:00.731Z,50.33
2022-09-04T01:37:42.053Z,50.49
2022-09-04T01:40:35.203Z,50.43
2022-09-04T01:43:07.341Z,50.29
2022-09-04T01:45:44.599Z,50.33
2022-09-04T01:48:13.828Z,50.27
2022-09-04T01:50:41.832Z,50.19
2022-09-04T01:53:13.221Z,50.15
2022-09-04T01:55:45.998Z,50.59
2022-09-04T01:58:18.466Z,50.20
2022-09-04T02:00:55.488Z,50.48
2022-09-04T02:03:27.747Z,50.21
2022-09-04T02:06:02.777Z,50.46
2022-09-04T02:08:50.640Z,50.39
2022-09-04T02:11:19.399Z,50.15
2022-09-04T02:14:09.398Z,50.23
2022-09-04T02:16:42.843Z,50.23
2022-09-04T02:19:22.389Z,50.50
2022-09-04T02:21:53.056Z,50.45
2022-09-04T02:24:23.750Z,50.21
2022-09-04T02:26:53.617Z,50.49
2022-09-04T02:29:27.395Z,50.42
2022-09-04T02:31:58.362Z,50.52
2022-09-04T02:34:30.764Z,50.43
2022-09-04T02:39:55.518Z,50.17
2022-09-04T02:42:26.095Z,50.24
2022-09-04T02:45:02.354Z,50.38
2022-09-04T02:47:33.254Z,50.30
2022-09-04T02:50:04.508Z,50.31
2022-09-04T02:52:51.966Z,50.30
2022-09-04T02:55:29.103Z,50.47
2022-09-04T02:58:02.021Z,50.13
2022-09-04T03:00:40.016Z,50.13
2022-09-04T03:03:10.336Z,50.39
2022-09-04T03:05:43.002Z,50.31
2022-09-04T03:08:15.236Z,50.13
2022-09-04T03:10:45.112Z,50.07
2022-09-04T03:13:16.723Z,50.37
2022-09-04T03:15:46.910Z,50.12
2022-09-04T03:18:19.073Z,50.21
2022-09-04T03:20:50.068Z,50.04
2022-09-04T03:23:20.809Z,50.30
2022-09-04T03:26:12.523Z,50.35
2022-09-04T03:28:46.723Z,50.34
2022-09-04T03:31:25.745Z,50.26
2022-09-04T03:33:56.179Z,50.14
2022-09-04T03:36:28.337Z,50.22
2022-09-04T03:39:02.600Z,50.03
2022-09-04T03:41:34.407Z,50.20
2022-09-04T03:44:08.634Z,50.38
2022-09-04T03:46:46.403Z,50.00
2022-09-04T03:49:19.012Z,50.09
2022-09-04T03:51:54.206Z,50.13
2022-09-04T03:54:36.542Z,50.30
2022-09-04T03:57:14.623Z,50.23
2022-09-04T03:59:50.373Z,50.34
2022-09-04T04:02:23.733Z,50.31
2022-09-04T04:05:11.868Z,50.23
2022-09-04T04:07:43.245Z,50.28
2022-09-04T04:10:18.646Z,50.30
2022-09-04T04:13:31.483Z,50.23
2022-09-04T04:16:15.848Z,50.31
2022-09-04T04:19:32.063Z,50.21
2022-09-04T04:22:16.772Z,50.21
2022-09-04T04:25:01.230Z,50.20
2022-09-04T04:27:37.139Z,50.34
2022-09-04T04:30:08.853Z,50.46
2022-09-04T04:33:06.424Z,50.34
2022-09-04T04:35:39.481Z,50.32
2022-09-04T04:38:18.372Z,50.31
2022-09-04T04:41:05.666Z,50.31
2022-09-04T04:43:38.579Z,50.15
2022-09-04T04:46:09.519Z,50.29
2022-09-04T04:52:00.140Z,50.47
2022-09-04T04:54:41.776Z,50.39
2022-09-04T04:57:14.416Z,50.38
2022-09-04T04:59:45.277Z,50.29
2022-09-04T05:02:20.440Z,50.23
2022-09-04T05:04:50.846Z,50.58
2022-09-04T05:07:23.770Z,50.37
2022-09-04T05:09:57.988Z,50.38
2022-09-04T05:12:30.773Z,50.37
2022-09-04T05:15:06.979Z,50.29
2022-09-04T05:17:37.395Z,50.44
2022-09-04T05:20:28.245Z,50.54
2022-09-04T05:23:01.921Z,50.59
2022-09-04T05:25:36.648Z,50.68
2022-09-04T05:28:08.673Z,50.57
2022-09-04T05:30:41.297Z,50.79
2022-09-04T05:33:13.287Z,50.85
2022-09-04T05:35:44.782Z,50.74
2022-09-04T05:38:17.086Z,50.55
2022-09-04T05:40:56.977Z,50.71
2022-09-04T05:43:31.016Z,50.47
2022-09-04T05:46:04.232Z,50.88
2022-09-04T05:48:34.710Z,50.55
2022-09-04T05:51:26.981Z,50.68
2022-09-04T05:54:11.810Z,50.77
2022-09-04T05:56:50.510Z,50.64
2022-09-04T05:59:55.633Z,50.61
2022-09-04T06:02:38.275Z,50.72
2022-09-04T06:05:19.281Z,50.70
2022-09-04T06:07:56.539Z,50.47
2022-09-04T06:10:27.410Z,50.55
2022-09-04T06:13:06.400Z,50.90
2022-09-04T06:15:41.823Z,50.73
2022-09-04T06:18:19.699Z,50.88
2022-09-04T06:20:55.559Z,50.71
2022-09-04T06:23:59.199Z,50.81
2022-09-04T06:26:48.714Z,50.79
2022-09-04T06:29:32.830Z,50.65
2022-09-04T06:32:08.813Z,51.04
2022-09-04T06:34:45.193Z,50.88
2022-09-04T06:37:17.902Z,50.62
2022-09-04T06:39:57.505Z,51.04
2022-09-04T06:42:32.071Z,50.78
2022-09-04T06:45:18.344Z,51.08
2022-09-04T06:47:56.869Z,50.94
2022-09-04T06:50:27.376Z,50.91
2022-09-04T06:53:04.420Z,50.91
2022-09-04T06:55:35.046Z,50.85
2022-09-04T06:58:15.112Z,50.83
2022-09-04T07:00:46.332Z,50.73
2022-09-04T07:03:21.923Z,51.02
2022-09-04T07:05:54.199Z,50.90
2022-09-04T07:08:33.021Z,51.03
2022-09-04T07:11:05.145Z,51.01
2022-09-04T07:13:45.375Z,50.79
2022-09-04T07:16:31.199Z,51.14
2022-09-04T07:19:11.751Z,51.00
2022-09-04T07:21:44.231Z,51.26
2022-09-04T07:24:18.254Z,50.98
2022-09-04T07:26:49.177Z,51.23
2022-09-04T07:29:27.993Z,51.22
2022-09-04T07:31:59.196Z,51.16
2022-09-04T07:34:30.862Z,51.11
2022-09-04T07:37:01.542Z,51.29
2022-09-04T07:39:31.727Z,51.40
2022-09-04T07:42:02.529Z,51.22
2022-09-04T07:44:34.072Z,51.34
2022-09-04T07:47:08.130Z,51.15
2022-09-04T07:49:39.122Z,51.33
2022-09-04T07:52:11.543Z,51.21
2022-09-04T07:54:51.226Z,51.37
2022-09-04T07:57:37.467Z,51.51
2022-09-04T08:00:08.308Z,51.34
2022-09-04T08:02:53.214Z,51.21
2022-09-04T08:05:24.254Z,51.34
2022-09-04T08:08:20.422Z,51.48
2022-09-04T08:11:00.872Z,51.18
2022-09-04T08:13:36.713Z,51.46
2022-09-04T08:16:07.358Z,51.49
2022-09-04T08:18:42.456Z,51.52
2022-09-04T08:21:17.381Z,51.48
2022-09-04T08:24:14.108Z,51.40
2022-09-04T08:26:45.810Z,51.63
2022-09-04T08:29:21.554Z,51.37
2022-09-04T08:31:54.420Z,51.56
2022-09-04T08:35:04.196Z,51.64
2022-09-04T08:37:35.979Z,51.59
2022-09-04T08:40:19.185Z,51.45
2022-09-04T08:43:09.923Z,51.47
2022-09-04T08:46:00.801Z,51.59
2022-09-04T08:49:10.527Z,51.26
2022-09-04T08:52:23.413Z,51.48
2022-09-04T08:55:07.349Z,51.13
2022-09-04T08:58:14.340Z,51.37
2022-09-04T09:00:49.838Z,51.21
2022-09-04T09:03:39.339Z,51.18
2022-09-04T09:06:45.207Z,51.13
2022-09-04T09:09:48.279Z,51.35
2022-09-04T09:12:41.271Z,51.31
2022-09-04T09:15:39.714Z,51.50
2022-09-04T09:18:18.199Z,51.25
2022-09-04T09:20:47.896Z,51.17
2022-09-04T09:23:18.529Z,51.50
2022-09-04T09:26:06.499Z,51.25
2022-09-04T09:29:22.523Z,51.33
2022-09-04T09:32:03.954Z,51.23
2022-09-04T09:35:09.010Z,51.36
2022-09-04T09:38:09.300Z,51.37
2022-09-04T09:41:03.407Z,51.23
2022-09-04T09:43:54.911Z,51.54
2022-09-04T09:46:38.554Z,51.35
2022-09-04T09:49:21.139Z,51.54
2022-09-04T09:52:11.075Z,51.30
2022-09-04T09:55:04.804Z,51.26
2022-09-04T09:57:56.185Z,51.51
2022-09-04T10:00:25.809Z,51.39
2022-09-04T10:03:24.586Z,51.29
2022-09-04T10:06:28.279Z,51.40
2022-09-04T10:09:22.158Z,51.23
2022-09-04T10:12:03.124Z,51.31
2022-09-04T10:15:07.359Z,51.41
2022-09-04T10:18:18.581Z,51.35
2022-09-04T10:21:12.457Z,51.41
2022-09-04T10:24:01.247Z,51.38
2022-09-04T10:26:39.458Z,51.36
2022-09-04T10:29:37.763Z,51.38
2022-09-04T10:32:41.817Z,51.43
2022-09-04T10:35:22.101Z,51.60
2022-09-04T10:38:19.426Z,51.26
2022-09-04T10:41:20.937Z,51.28
2022-09-04T10:44:15.245Z,51.56
2022-09-04T10:46:47.538Z,51.30
2022-09-04T10:49:39.068Z,51.30
2022-09-04T10:52:17.663Z,51.16
2022-09-04T10:55:04.317Z,51.32
2022-09-04T10:57:55.424Z,51.34
2022-09-04T11:00:24.000Z,51.26
2022-09-04T11:03:33.391Z,51.27
2022-09-04T11:06:23.081Z,51.33
2022-09-04T11:09:04.567Z,51.51
2022-09-04T11:11:46.262Z,51.50
2022-09-04T11:14:52.256Z,51.65
2022-09-04T11:17:48.782Z,51.57
2022-09-04T11:20:48.360Z,51.87
2022-09-04T11:23:49.765Z,51.70
2022-09-04T11:26:49.475Z,51.89
2022-09-04T11:29:32.770Z,51.78
2022-09-04T11:32:12.401Z,51.62
2022-09-04T11:34:55.726Z,51.48
2022-09-04T11:37:59.720Z,51.34
2022-09-04T11:41:03.979Z,51.70
2022-09-04T11:43:54.141Z,51.41
2022-09-04T11:46:34.047Z,51.49
2022-09-04T11:49:16.668Z,51.59
2022-09-04T11:52:18.293Z,51.41
2022-09-04T11:55:11.120Z,51.49
2022-09-04T11:57:46.050Z,51.42
2022-09-04T12:00:15.122Z,51.41
2022-09-04T12:03:03.228Z,51.49
2022-09-04T12:05:40.913Z,51.35
2022-09-04T12:08:23.175Z,51.27
2022-09-04T12:11:06.844Z,51.18
2022-09-04T12:13:59.185Z,51.23
2022-09-04T12:17:08.507Z,51.26
2022-09-04T12:19:50.697Z,51.28
2022-09-04T12:22:51.875Z,51.27
2022-09-04T12:25:37.802Z,51.42
2022-09-04T12:28:26.767Z,51.23
2022-09-04T12:31:03.236Z,51.32
2022-09-04T12:33:58.515Z,51.27
2022-09-04T12:36:42.410Z,51.21
2022-09-04T12:39:25.981Z,51.31
2022-09-04T12:41:59.227Z,51.10
2022-09-04T12:44:35.367Z,50.89
2022-09-04T12:47:14.148Z,50.93
2022-09-04T12:50:10.481Z,51.05
2022-09-04T12:52:46.980Z,51.00
2022-09-04T12:55:17.396Z,51.03
2022-09-04T12:57:55.705Z,50.84
2022-09-04T13:00:31.737Z,51.04
2022-09-04T13:03:14.065Z,50.89
2022-09-04T13:05:52.921Z,50.85
2022-09-04T13:08:27.522Z,50.84
2022-09-04T13:11:01.931Z,50.90
2022-09-04T13:13:40.037Z,50.83
2022-09-04T13:16:10.707Z,50.67
2022-09-04T13:18:44.888Z,50.91
2022-09-04T13:21:18.840Z,50.79
2022-09-04T13:23:59.097Z,50.78
2022-09-04T13:26:43.953Z,51.00
2022-09-04T13:29:17.498Z,51.06
2022-09-04T13:31:59.545Z,50.85
2022-09-04T13:34:34.078Z,50.79
2022-09-04T13:37:08.172Z,50.81
2022-09-04T13:39:45.492Z,50.86
2022-09-04T13:42:34.625Z,50.64
2022-09-04T13:45:07.578Z,50.77
2022-09-04T13:47:46.196Z,50.77
2022-09-04T13:50:22.507Z,50.83
2022-09-04T13:52:55.829Z,50.83
2022-09-04T13:55:25.158Z,50.84
2022-09-04T13:57:57.467Z,50.74
2022-09-04T14:00:27.616Z,50.87
2022-09-04T14:02:59.317Z,50.85
2022-09-04T14:05:29.480Z,50.71
2022-09-04T14:08:02.914Z,50.68
2022-09-04T14:10:40.704Z,50.64
2022-09-04T14:13:14.957Z,50.73
2022-09-04T14:15:58.187Z,50.80
2022-09-04T14:18:37.241Z,50.78
2022-09-04T14:21:16.942Z,50.77
2022-09-04T14:23:47.945Z,50.71
2022-09-04T14:26:21.985Z,50.75
2022-09-04T14:28:51.381Z,50.66
2022-09-04T14:31:24.280Z,50.83
2022-09-04T14:33:57.465Z,50.58
2022-09-04T14:36:34.361Z,50.87
2022-09-04T14:39:17.189Z,50.71
2022-09-04T14:41:54.472Z,50.67
2022-09-04T14:44:29.886Z,50.56
2022-09-04T14:47:04.047Z,50.49
2022-09-04T14:49:34.555Z,50.52
2022-09-04T14:52:04.195Z,50.53
2022-09-04T14:54:36.054Z,50.51
2022-09-04T14:57:06.018Z,50.38
2022-09-04T14:59:35.628Z,50.49
2022-09-04T15:02:14.871Z,50.34
2022-09-04T15:04:46.739Z,50.67
2022-09-04T15:07:29.805Z,50.61
2022-09-04T15:10:09.384Z,50.49
2022-09-04T15:12:38.705Z,50.61
2022-09-04T15:15:08.764Z,50.58
2022-09-04T15:17:39.370Z,50.63
2022-09-04T15:20:09.141Z,50.53
2022-09-04T15:22:39.339Z,50.55
2022-09-04T15:25:09.143Z,50.54
2022-09-04T15:27:43.934Z,50.53
2022-09-04T15:30:20.603Z,50.57
2022-09-04T15:32:50.344Z,50.66
2022-09-04T15:35:23.175Z,50.66
2022-09-04T15:37:52.538Z,50.81
2022-09-04T15:40:28.508Z,50.50
2022-09-04T15:43:08.109Z,50.55
2022-09-04T15:45:42.016Z,50.73
2022-09-04T15:48:27.979Z,50.49
2022-09-04T15:51:01.997Z,50.50
2022-09-04T15:53:31.739Z,50.65
2022-09-04T15:56:09.587Z,50.59
2022-09-04T15:58:47.426Z,50.55
2022-09-04T16:01:17.061Z,50.65
2022-09-04T16:04:03.070Z,50.60
2022-09-04T16:06:32.485Z,50.59
2022-09-04T16:09:03.205Z,50.57
2022-09-04T16:11:34.298Z,50.67
2022-09-04T16:14:03.333Z,50.69
2022-09-04T16:16:34.544Z,50.75
2022-09-04T16:19:07.857Z,50.70
2022-09-04T16:21:41.436Z,50.79
2022-09-04T16:24:15.307Z,50.87
2022-09-04T16:26:44.914Z,50.77
2022-09-04T16:29:16.513Z,50.92
2022-09-04T16:31:44.741Z,50.66
2022-09-04T16:34:24.564Z,50.88
2022-09-04T16:36:55.704Z,50.86
2022-09-04T16:39:26.557Z,50.72
2022-09-04T16:41:56.559Z,50.75
2022-09-04T16:44:26.872Z,50.80
2022-09-04T16:47:03.022Z,50.75
2022-09-04T16:49:39.025Z,50.89
2022-09-04T16:52:26.890Z,51.00
2022-09-04T16:54:55.710Z,50.90
2022-09-04T16:57:28.281Z,50.84
2022-09-04T16:59:57.456Z,51.08
2022-09-04T17:02:32.204Z,51.09
2022-09-04T17:05:13.405Z,51.23
2022-09-04T17:07:43.259Z,51.21
2022-09-04T17:10:30.604Z,51.28
2022-09-04T17:13:07.447Z,51.29
2022-09-04T17:15:53.069Z,51.16
2022-09-04T17:18:22.430Z,51.24
2022-09-04T17:24:34.839Z,51.34
2022-09-04T17:29:05.115Z,51.32
2022-09-04T17:29:13.817Z,50.95
2022-09-04T17:29:36.141Z,51.30
2022-09-04T17:32:33.616Z,51.29
2022-09-04T17:40:37.325Z,51.41
2022-09-04T17:40:43.498Z,51.34
2022-09-04T17:41:38.376Z,51.49
2022-09-04T17:43:39.388Z,51.43
2022-09-04T17:46:16.037Z,51.49
2022-09-04T17:48:44.665Z,51.49
2022-09-04T17:51:17.495Z,51.66
2022-09-04T17:53:49.650Z,51.48
2022-09-04T17:56:22.020Z,51.57
2022-09-04T17:58:50.990Z,51.49
2022-09-04T18:01:21.311Z,51.48
2022-09-04T18:04:19.735Z,51.75
2022-09-04T18:06:53.271Z,51.38
2022-09-04T18:09:26.539Z,51.57
2022-09-04T18:12:00.939Z,51.54
2022-09-04T18:14:34.529Z,51.69
2022-09-04T18:17:11.628Z,51.64
2022-09-04T18:19:43.107Z,51.54
2022-09-04T18:22:25.473Z,51.79
2022-09-04T18:24:57.411Z,51.53
2022-09-04T18:27:29.654Z,51.54
2022-09-04T18:31:41.584Z,51.64
2022-09-04T18:37:06.870Z,51.51
2022-09-04T18:37:22.852Z,51.46
2022-09-04T18:38:38.103Z,51.71
2022-09-04T18:44:34.553Z,51.38
2022-09-04T18:50:29.499Z,51.37
2022-09-04T18:50:33.210Z,51.41
2022-09-04T18:50:34.464Z,51.43
2022-09-04T18:52:34.348Z,51.40
2022-09-04T18:55:03.599Z,51.21
2022-09-04T18:57:34.773Z,51.47
2022-09-04T19:00:08.676Z,51.34
2022-09-04T19:02:42.420Z,51.22
2022-09-04T19:05:18.909Z,51.44
2022-09-04T19:07:47.992Z,51.35
2022-09-04T19:10:25.555Z,51.32
2022-09-04T19:13:02.299Z,51.32
2022-09-04T19:15:49.040Z,51.34
2022-09-04T19:18:23.460Z,51.25
2022-09-04T19:20:51.764Z,51.20
2022-09-04T19:23:24.889Z,51.23
2022-09-04T19:25:54.900Z,51.18
2022-09-04T19:28:26.095Z,51.40
2022-09-04T19:30:55.502Z,51.32
2022-09-04T19:33:31.746Z,51.30
2022-09-04T19:36:01.926Z,51.21
2022-09-04T19:45:57.650Z,51.13
2022-09-04T19:46:13.087Z,51.13
2022-09-04T19:46:19.375Z,51.04
2022-09-04T19:47:28.962Z,51.20
2022-09-04T19:53:22.273Z,51.14
2022-09-04T19:53:30.955Z,51.07
2022-09-04T19:55:41.837Z,50.96
2022-09-04T19:58:10.551Z,51.10
2022-09-04T20:00:44.447Z,50.87
2022-09-04T20:03:30.398Z,50.81
2022-09-04T20:06:07.663Z,50.97
2022-09-04T20:08:51.848Z,50.68
2022-09-04T20:11:34.538Z,50.71
2022-09-04T20:14:13.601Z,50.65
2022-09-04T20:16:48.570Z,50.53
2022-09-04T20:19:28.523Z,50.56
2022-09-04T20:21:59.788Z,50.65
2022-09-04T20:24:30.152Z,50.41
2022-09-04T20:27:01.205Z,50.36
2022-09-04T20:29:31.569Z,50.58
2022-09-04T20:32:04.286Z,50.37
2022-09-04T20:34:39.181Z,50.34
2022-09-04T20:37:43.580Z,50.27
2022-09-04T20:40:18.283Z,50.19
2022-09-04T20:42:47.837Z,50.65
2022-09-04T20:47:23.039Z,50.61
2022-09-04T20:52:56.058Z,50.73
2022-09-04T20:53:05.371Z,50.58
2022-09-04T20:54:28.422Z,50.71
2022-09-04T20:58:52.336Z,50.61
2022-09-04T21:03:08.103Z,50.52
2022-09-04T21:03:13.905Z,50.53
2022-09-04T21:05:50.512Z,50.36
2022-09-04T21:08:31.049Z,50.06
2022-09-04T21:11:00.870Z,50.19
2022-09-04T21:13:31.730Z,50.01
2022-09-04T21:16:06.590Z,50.04
2022-09-04T21:18:42.311Z,49.87
2022-09-04T21:21:22.273Z,49.96
2022-09-04T21:24:07.016Z,49.92
2022-09-04T21:26:56.962Z,49.95
2022-09-04T21:29:30.937Z,50.06
2022-09-04T21:32:31.413Z,49.90
2022-09-04T21:35:05.980Z,50.04
2022-09-04T21:37:38.088Z,49.97
2022-09-04T21:40:59.101Z,49.92
2022-09-04T21:43:51.705Z,50.11
2022-09-04T21:46:33.682Z,49.94
2022-09-04T21:49:08.416Z,49.92
2022-09-04T21:51:56.961Z,50.10
2022-09-04T21:58:37.197Z,49.78
2022-09-04T22:02:40.455Z,50.09
2022-09-04T22:02:42.744Z,49.91
2022-09-04T22:03:42.670Z,50.09
2022-09-04T22:06:25.728Z,49.76
2022-09-04T22:13:30.678Z,50.04
2022-09-04T22:13:38.521Z,49.93
2022-09-04T22:14:55.305Z,49.78
2022-09-04T22:17:41.518Z,49.84
2022-09-04T22:20:20.031Z,49.85
2022-09-04T22:23:24.894Z,49.96
2022-09-04T22:26:08.581Z,49.82
2022-09-04T22:28:57.222Z,50.00
2022-09-04T22:31:47.614Z,50.09
2022-09-04T22:34:26.204Z,50.06
2022-09-04T22:37:24.110Z,50.05
2022-09-04T22:40:12.643Z,50.04
2022-09-04T22:42:45.286Z,49.98
2022-09-04T22:45:37.108Z,50.10
2022-09-04T22:48:29.342Z,49.85
2022-09-04T22:51:10.587Z,49.95
2022-09-04T22:53:57.758Z,50.08
2022-09-04T22:56:34.408Z,49.86
2022-09-04T22:59:26.976Z,50.14
2022-09-04T23:03:04.201Z,50.03
2022-09-04T23:06:16.186Z,49.89
2022-09-04T23:13:43.836Z,49.89
2022-09-04T23:13:59.148Z,49.92
2022-09-04T23:14:48.871Z,49.88
2022-09-04T23:17:58.246Z,50.02
2022-09-04T23:26:49.408Z,49.85
2022-09-04T23:26:52.626Z,49.83
2022-09-04T23:27:00.943Z,50.06
2022-09-04T23:30:03.948Z,49.88
2022-09-04T23:32:53.927Z,50.03
2022-09-04T23:35:27.704Z,50.01
2022-09-04T23:38:11.036Z,49.96
2022-09-04T23:40:44.505Z,49.73
2022-09-04T23:43:33.091Z,49.86
2022-09-04T23:46:32.359Z,49.78
2022-09-04T23:49:41.579Z,49.86
2022-09-04T23:52:15.363Z,49.83
2022-09-04T23:54:57.914Z,50.16
2022-09-04T23:57:28.809Z,50.10
